Time;durP1;ratioP1;P1;durP2;ratioP2;P2;SDS_P1;SDS_P2;PMS_P1;PMS_P2;Temp;Humidity;BMP_temperature;BMP_pressure;BME280_temperature;BME280_humidity;BME280_pressure;Samples;Min_cycle;Max_cycle;Signal;HPM_P1;HPM_P2
2021/04/21 05:43:55;;;;;;;25.20;19.73;;;17.40;56.30;;;;;;6272799;22;20532;-82
2021/04/21 05:46:23;;;;;;;25.33;18.90;;;17.40;56.30;;;;;;6203129;22;781430;-77
2021/04/21 05:48:52;;;;;;;24.23;18.42;;;17.40;56.40;;;;;;6214377;23;20001;-83
2021/04/21 05:51:57;;;;;;;25.60;19.75;;;17.40;56.30;;;;;;6214995;23;20446;-79
2021/04/21 05:54:54;;;;;;;23.52;18.02;;;17.40;56.90;;;;;;6214966;23;20032;-79
2021/04/21 05:57:57;;;;;;;22.67;18.83;;;17.50;56.20;;;;;;6215111;23;20084;-80
2021/04/21 06:00:41;;;;;;;22.50;18.15;;;17.50;56.30;;;;;;6216590;23;20479;-79
2021/04/21 06:03:08;;;;;;;24.60;18.38;;;17.60;56.30;;;;;;6224690;23;19996;-76
2021/04/21 06:05:34;;;;;;;22.75;17.35;;;17.60;56.30;;;;;;6216277;23;20061;-78
2021/04/21 06:08:12;;;;;;;23.98;18.23;;;17.60;56.30;;;;;;6215007;23;20443;-82
2021/04/21 06:10:39;;;;;;;24.73;18.58;;;17.70;56.40;;;;;;6213698;23;20451;-78
2021/04/21 06:13:04;;;;;;;22.63;17.52;;;17.70;56.40;;;;;;6215199;23;19997;-80
2021/04/21 06:15:35;;;;;;;25.15;18.67;;;17.80;56.40;;;;;;6214773;23;20055;-82
2021/04/21 06:18:03;;;;;;;26.15;18.80;;;17.90;56.60;;;;;;6214470;23;20027;-80
2021/04/21 06:20:38;;;;;;;26.52;18.08;;;17.90;56.70;;;;;;6214591;23;20005;-83
2021/04/21 06:23:22;;;;;;;26.90;19.73;;;18.00;56.80;;;;;;6214438;23;20472;-80
2021/04/21 06:25:57;;;;;;;27.08;20.02;;;18.10;56.90;;;;;;6222910;23;20484;-81
2021/04/21 06:28:24;;;;;;;26.35;19.50;;;18.20;57.00;;;;;;6215073;23;19997;-80
2021/04/21 06:31:02;;;;;;;25.23;17.50;;;18.20;57.10;;;;;;6214403;23;20007;-82
2021/04/21 06:33:44;;;;;;;26.13;17.52;;;18.30;57.00;;;;;;6215252;23;20007;-81
2021/04/21 06:36:12;;;;;;;32.85;17.88;;;18.40;57.40;;;;;;6213356;23;20013;-78
2021/04/21 06:38:39;;;;;;;23.40;17.33;;;18.60;57.70;;;;;;6214549;23;20035;-78
2021/04/21 06:41:06;;;;;;;22.80;14.70;;;18.80;57.50;;;;;;6214501;23;20501;-78
2021/04/21 06:43:33;;;;;;;22.17;14.68;;;18.90;57.30;;;;;;6214629;23;20005;-81
2021/04/21 06:46:00;;;;;;;19.58;13.07;;;19.10;57.00;;;;;;6215164;23;20338;-81
2021/04/21 06:48:31;;;;;;;28.50;17.90;;;19.20;56.90;;;;;;6214430;23;20436;-77
2021/04/21 06:51:10;;;;;;;31.02;20.88;;;19.20;57.10;;;;;;6214385;23;20072;-70
2021/04/21 06:53:36;;;;;;;22.98;13.93;;;19.30;56.30;;;;;;6214147;23;20264;-71
2021/04/21 06:56:02;;;;;;;20.40;15.60;;;19.40;56.40;;;;;;6214426;23;20490;-72
2021/04/21 06:58:29;;;;;;;22.17;16.55;;;19.80;55.50;;;;;;6214390;23;20020;-72
2021/04/21 07:01:10;;;;;;;19.50;16.17;;;19.60;55.50;;;;;;6214338;23;19997;-71
2021/04/21 07:03:41;;;;;;;25.15;17.08;;;19.50;55.70;;;;;;6211492;23;20039;-72
2021/04/21 07:06:07;;;;;;;19.65;15.27;;;19.40;56.00;;;;;;6214285;23;20005;-72
2021/04/21 07:08:39;;;;;;;29.40;18.00;;;19.40;56.10;;;;;;6214140;23;20344;-70
2021/04/21 07:11:07;;;;;;;23.17;15.95;;;19.40;55.90;;;;;;6214407;23;20007;-69
2021/04/21 07:13:41;;;;;;;20.17;16.05;;;19.40;56.50;;;;;;6214455;23;20075;-72
2021/04/21 07:16:13;;;;;;;21.63;16.88;;;19.30;55.90;;;;;;6214143;23;20066;-70
2021/04/21 07:18:42;;;;;;;20.77;16.45;;;19.30;55.80;;;;;;6213620;23;20012;-71
2021/04/21 07:21:08;;;;;;;26.85;18.52;;;19.30;55.80;;;;;;6210765;23;20004;-71
2021/04/21 07:23:37;;;;;;;27.15;18.52;;;19.30;55.80;;;;;;6212599;23;20123;-72
2021/04/21 07:26:04;;;;;;;27.23;18.90;;;19.30;55.70;;;;;;6213520;23;20058;-72
2021/04/21 07:28:30;;;;;;;23.80;18.65;;;19.30;55.70;;;;;;6213912;23;20011;-69
2021/04/21 07:31:09;;;;;;;29.52;20.60;;;19.30;55.70;;;;;;6212796;23;20048;-71
2021/04/21 07:33:43;;;;;;;27.05;18.65;;;19.30;55.60;;;;;;6213769;23;20099;-72
2021/04/21 07:36:27;;;;;;;23.80;18.00;;;19.20;55.50;;;;;;6214312;23;20007;-72
2021/04/21 07:38:55;;;;;;;29.95;21.13;;;19.30;55.50;;;;;;6214092;23;20015;-71
2021/04/21 07:41:37;;;;;;;26.58;19.80;;;19.20;55.40;;;;;;6212358;23;20012;-72
2021/04/21 07:44:05;;;;;;;23.70;17.70;;;19.20;55.40;;;;;;6213958;23;20011;-71
2021/04/21 07:46:30;;;;;;;23.60;17.67;;;19.20;55.40;;;;;;6213879;23;20441;-72
2021/04/21 07:48:57;;;;;;;24.05;18.00;;;19.20;55.30;;;;;;6213724;23;20000;-70
2021/04/21 07:51:24;;;;;;;24.90;18.00;;;19.30;55.40;;;;;;6214121;23;20001;-70
2021/04/21 07:53:58;;;;;;;23.13;17.42;;;19.20;55.30;;;;;;6213918;23;20027;-71
2021/04/21 07:56:33;;;;;;;24.02;18.77;;;19.20;55.30;;;;;;6213980;23;20001;-70
2021/04/21 07:59:21;;;;;;;21.38;16.80;;;19.30;55.30;;;;;;6213505;23;20032;-71
2021/04/21 08:01:48;;;;;;;22.95;18.30;;;19.20;55.20;;;;;;6214307;23;20000;-72
2021/04/21 08:04:24;;;;;;;21.35;17.40;;;19.20;55.30;;;;;;6214062;23;20007;-70
2021/04/21 08:06:53;;;;;;;21.85;16.55;;;19.20;55.20;;;;;;6214012;23;20001;-72
2021/04/21 08:09:19;;;;;;;23.38;17.42;;;19.20;55.20;;;;;;6214011;23;20005;-72
2021/04/21 08:11:45;;;;;;;24.05;18.83;;;19.20;55.20;;;;;;6214072;23;20491;-71
2021/04/21 08:14:12;;;;;;;24.08;17.98;;;19.20;55.20;;;;;;6213331;23;20087;-72
2021/04/21 08:16:38;;;;;;;21.63;16.80;;;19.20;55.20;;;;;;6213834;23;20001;-71
2021/04/21 08:19:13;;;;;;;21.67;16.65;;;19.30;55.20;;;;;;6213481;23;20086;-71
2021/04/21 08:21:47;;;;;;;22.35;16.45;;;19.20;55.10;;;;;;6213790;23;20005;-70
2021/04/21 08:24:15;;;;;;;21.20;16.02;;;19.30;55.20;;;;;;6213751;23;20009;-71
2021/04/21 08:26:49;;;;;;;24.13;18.73;;;19.30;55.10;;;;;;6213835;23;20031;-71
2021/04/21 08:29:16;;;;;;;25.48;18.38;;;19.20;55.00;;;;;;6213680;23;20088;-70
2021/04/21 08:31:46;;;;;;;22.33;16.73;;;19.30;55.10;;;;;;6213607;23;20448;-70
2021/04/21 08:34:12;;;;;;;22.73;17.05;;;19.30;55.10;;;;;;6213452;23;20036;-70
2021/04/21 08:36:39;;;;;;;22.23;16.92;;;19.30;55.00;;;;;;6211911;23;20001;-71
2021/04/21 08:39:05;;;;;;;20.13;16.08;;;19.30;55.00;;;;;;6213203;23;20016;-72
2021/04/21 08:41:36;;;;;;;22.73;15.98;;;19.30;55.60;;;;;;6212985;23;20026;-72
2021/04/21 08:44:03;;;;;;;19.83;15.35;;;19.30;55.00;;;;;;6212765;23;20510;-72
2021/04/21 08:46:29;;;;;;;19.25;16.17;;;19.30;55.00;;;;;;6213094;23;20019;-72
2021/04/21 08:48:57;;;;;;;19.92;15.23;;;19.30;54.90;;;;;;6213630;23;20063;-72
2021/04/21 08:51:24;;;;;;;22.40;15.98;;;19.30;54.90;;;;;;6211647;23;20352;-72
2021/04/21 08:53:52;;;;;;;19.23;14.98;;;19.30;54.90;;;;;;6212089;23;20008;-72
2021/04/21 08:56:20;;;;;;;20.52;15.43;;;19.40;55.00;;;;;;6213699;23;20108;-74
2021/04/21 08:58:47;;;;;;;19.23;15.90;;;19.40;55.50;;;;;;6212871;23;20013;-72
2021/04/21 09:01:14;;;;;;;19.20;14.40;;;19.40;55.00;;;;;;6214753;23;20000;-72
2021/04/21 09:03:43;;;;;;;19.58;14.93;;;19.40;55.00;;;;;;6215560;23;20009;-72
2021/04/21 09:06:09;;;;;;;21.55;15.05;;;19.40;55.00;;;;;;6215516;23;20004;-71
2021/04/21 09:08:38;;;;;;;19.15;14.10;;;19.40;55.00;;;;;;6215554;23;20001;-73
2021/04/21 09:11:04;;;;;;;19.20;14.38;;;19.40;55.00;;;;;;6215545;23;20023;-73
2021/04/21 09:13:30;;;;;;;16.00;13.20;;;19.40;54.90;;;;;;6215404;23;20008;-72
2021/04/21 09:15:57;;;;;;;16.83;13.68;;;19.40;54.90;;;;;;6215531;23;20074;-72
2021/04/21 09:18:32;;;;;;;15.98;13.35;;;19.40;54.80;;;;;;6215561;23;20009;-71
2021/04/21 09:20:59;;;;;;;;;;;19.50;54.80;;;;;;6215882;23;20008;-75
2021/04/21 09:23:43;;;;;;;17.30;12.48;;;19.50;54.80;;;;;;6215146;23;20317;-74
2021/04/21 09:26:23;;;;;;;16.63;12.50;;;19.50;54.60;;;;;;6215414;23;20495;-70
2021/04/21 09:28:55;;;;;;;15.20;11.63;;;19.50;54.60;;;;;;6215925;23;20005;-73
2021/04/21 09:31:23;;;;;;;17.08;11.73;;;19.50;54.50;;;;;;6215510;23;20051;-75
2021/04/21 09:34:08;;;;;;;17.02;12.68;;;19.50;54.50;;;;;;6215706;23;20005;-74
2021/04/21 09:36:43;;;;;;;14.20;12.10;;;19.50;54.50;;;;;;6215298;23;20008;-75
2021/04/21 09:39:23;;;;;;;16.25;12.68;;;19.60;54.50;;;;;;6216270;23;20012;-70
2021/04/21 09:41:50;;;;;;;15.15;11.38;;;19.60;54.50;;;;;;6214946;23;20001;-72
2021/04/21 09:44:23;;;;;;;15.98;11.85;;;19.60;54.50;;;;;;6214712;23;20009;-74
2021/04/21 09:46:49;;;;;;;12.30;10.43;;;19.60;54.40;;;;;;6213299;23;20344;-75
2021/04/21 09:49:32;;;;;;;14.10;10.95;;;19.60;54.40;;;;;;6215154;23;20080;-75
2021/04/21 09:52:01;;;;;;;12.27;10.55;;;19.60;54.40;;;;;;6215248;23;20000;-70
2021/04/21 09:54:36;;;;;;;11.55;9.63;;;19.60;54.30;;;;;;6215293;23;20049;-74
2021/04/21 09:57:27;;;;;;;13.45;10.75;;;19.60;54.30;;;;;;6214806;23;20075;-72
2021/04/21 10:00:07;;;;;;;13.43;10.38;;;19.70;54.30;;;;;;6215292;23;20348;-74
2021/04/21 10:02:40;;;;;;;13.32;10.30;;;19.70;54.20;;;;;;6214662;23;20318;-70
2021/04/21 10:05:28;;;;;;;13.18;9.35;;;19.70;54.20;;;;;;6215130;23;20024;-74
2021/04/21 10:08:22;;;;;;;11.93;9.48;;;19.70;54.30;;;;;;6214225;23;20039;-71
2021/04/21 10:11:05;;;;;;;12.57;9.30;;;19.80;54.20;;;;;;6213586;23;20000;-70
2021/04/21 10:13:48;;;;;;;10.30;8.90;;;19.80;54.10;;;;;;6212636;23;20009;-74
2021/04/21 10:16:15;;;;;;;11.70;9.35;;;19.80;54.10;;;;;;6214822;23;20004;-75
2021/04/21 10:18:42;;;;;;;11.15;8.85;;;19.80;54.00;;;;;;6213095;23;20404;-74
2021/04/21 10:21:10;;;;;;;12.50;9.20;;;19.80;54.00;;;;;;6214547;23;20476;-72
2021/04/21 10:23:35;;;;;;;12.98;9.27;;;19.80;54.10;;;;;;6215080;23;20005;-74
2021/04/21 10:26:06;;;;;;;10.15;8.32;;;19.90;54.00;;;;;;6214540;23;20340;-73
2021/04/21 10:28:33;;;;;;;10.50;8.57;;;19.90;54.00;;;;;;6214529;23;20036;-74
2021/04/21 10:31:01;;;;;;;12.05;8.43;;;19.90;53.90;;;;;;6214597;23;20456;-75
2021/04/21 10:33:27;;;;;;;10.98;8.93;;;19.90;53.80;;;;;;6213919;23;20013;-71
2021/04/21 10:35:54;;;;;;;10.98;8.30;;;20.00;53.90;;;;;;6215135;23;20031;-71
2021/04/21 10:38:23;;;;;;;9.80;8.65;;;20.00;54.40;;;;;;6213852;23;20524;-71
2021/04/21 10:40:49;;;;;;;11.70;8.13;;;20.00;53.70;;;;;;6214111;23;20004;-72
2021/04/21 10:43:15;;;;;;;14.00;8.60;;;20.10;53.70;;;;;;6214352;23;20054;-71
2021/04/21 10:45:49;;;;;;;11.40;8.07;;;20.10;53.70;;;;;;6214530;23;20179;-73
2021/04/21 10:48:38;;;;;;;9.43;7.72;;;20.20;53.70;;;;;;6214344;23;20001;-71
2021/04/21 10:51:37;;;;;;;9.80;6.47;;;20.30;53.40;;;;;;6213077;23;20005;-73
2021/04/21 10:54:06;;;;;;;8.30;6.30;;;20.40;53.40;;;;;;6213276;23;20001;-73
2021/04/21 10:56:33;;;;;;;8.85;6.72;;;20.60;53.20;;;;;;6213356;23;20388;-72
2021/04/21 10:59:01;;;;;;;8.25;6.30;;;20.60;53.10;;;;;;6211489;23;20076;-71
2021/04/21 11:01:37;;;;;;;8.40;6.47;;;20.70;52.90;;;;;;6212762;23;20376;-70
2021/04/21 11:04:03;;;;;;;;;;;20.80;52.80;;;;;;6212806;23;20345;-72
2021/04/21 11:06:40;;;;;;;7.13;5.93;;;20.90;52.70;;;;;;6212555;23;20367;-71
2021/04/21 11:09:10;;;;;;;7.57;5.93;;;21.00;52.60;;;;;;6213564;23;20008;-72
2021/04/21 11:11:47;;;;;;;9.20;5.05;;;21.10;52.90;;;;;;6213673;23;20000;-72
2021/04/21 11:14:34;;;;;;;6.78;4.90;;;21.20;52.70;;;;;;6213553;23;20027;-71
2021/04/21 11:17:07;;;;;;;8.77;5.43;;;21.20;52.70;;;;;;6212896;23;20013;-72
2021/04/21 11:19:40;;;;;;;6.60;5.32;;;21.40;52.60;;;;;;6213652;23;20016;-70
2021/04/21 11:22:27;;;;;;;7.07;5.55;;;21.50;52.50;;;;;;6213172;23;19996;-70
2021/04/21 11:25:21;;;;;;;8.98;5.97;;;21.60;52.20;;;;;;6213328;23;20008;-73
2021/04/21 11:27:47;;;;;;;7.25;5.35;;;21.80;52.00;;;;;;6217205;23;20028;-71
2021/04/21 11:30:31;;;;;;;6.75;5.63;;;21.80;51.90;;;;;;6213656;23;20000;-72
2021/04/21 11:32:57;;;;;;;6.93;6.05;;;21.80;51.80;;;;;;6214482;23;20010;-72
2021/04/21 11:35:27;;;;;;;7.93;6.47;;;21.90;51.70;;;;;;6212192;23;20032;-72
2021/04/21 11:37:52;;;;;;;8.45;6.57;;;21.90;51.60;;;;;;6214063;23;20000;-71
2021/04/21 11:40:28;;;;;;;8.15;6.25;;;22.10;51.40;;;;;;6213956;23;20018;-70
2021/04/21 11:43:16;;;;;;;8.48;6.60;;;22.20;51.20;;;;;;6212613;23;20001;-72
2021/04/21 11:45:43;;;;;;;9.80;7.45;;;22.30;51.10;;;;;;6213894;23;20008;-70
2021/04/21 11:48:09;;;;;;;8.50;7.18;;;22.40;50.80;;;;;;6213450;23;20000;-72
2021/04/21 11:50:37;;;;;;;8.48;6.53;;;22.30;50.70;;;;;;6214173;23;20027;-73
2021/04/21 11:53:10;;;;;;;8.07;6.43;;;22.40;50.80;;;;;;6214119;23;20384;-73
2021/04/21 11:55:56;;;;;;;15.52;7.32;;;22.50;50.50;;;;;;6214209;23;20028;-72
2021/04/21 11:58:23;;;;;;;8.75;7.13;;;22.60;50.30;;;;;;6212223;23;20012;-72
2021/04/21 12:00:49;;;;;;;10.43;6.78;;;22.70;50.10;;;;;;6213472;23;20003;-73
2021/04/21 12:03:17;;;;;;;9.90;6.85;;;22.80;50.20;;;;;;6213702;23;20000;-73
2021/04/21 12:05:44;;;;;;;8.13;6.55;;;22.90;49.80;;;;;;6213661;23;20004;-73
2021/04/21 12:08:11;;;;;;;7.13;5.82;;;23.00;49.80;;;;;;6213772;23;20131;-71
2021/04/21 12:10:40;;;;;;;9.25;5.60;;;23.00;49.80;;;;;;6213590;23;20002;-74
2021/04/21 12:13:13;;;;;;;7.25;5.00;;;23.10;49.80;;;;;;6213136;23;19996;-68
2021/04/21 12:15:38;;;;;;;7.22;5.32;;;23.20;49.70;;;;;;6213522;23;20005;-70
2021/04/21 12:18:05;;;;;;;5.72;4.03;;;23.20;49.90;;;;;;6213723;23;20036;-72
2021/04/21 12:20:31;;;;;;;9.18;4.97;;;23.60;49.40;;;;;;6214257;23;20005;-71
2021/04/21 12:22:57;;;;;;;6.18;5.53;;;23.70;49.20;;;;;;6213715;23;20488;-72
2021/04/21 12:25:27;;;;;;;8.63;5.72;;;23.80;49.00;;;;;;6213280;23;20011;-71
2021/04/21 12:27:58;;;;;;;10.25;5.93;;;23.70;49.10;;;;;;6210404;23;20054;-71
2021/04/21 12:30:29;;;;;;;9.13;6.53;;;23.60;49.40;;;;;;6210533;23;20348;-71
2021/04/21 12:33:05;;;;;;;8.30;5.00;;;23.50;49.60;;;;;;6212160;23;20070;-72
2021/04/21 12:35:31;;;;;;;11.25;5.97;;;23.50;49.70;;;;;;6212495;23;20445;-71
2021/04/21 12:38:01;;;;;;;7.68;5.55;;;23.40;50.10;;;;;;6210077;23;20001;-72
2021/04/21 12:40:30;;;;;;;6.25;4.97;;;23.20;50.50;;;;;;6210784;23;20012;-72
2021/04/21 12:43:10;;;;;;;7.72;5.38;;;23.20;50.50;;;;;;6212961;23;20008;-77
2021/04/21 12:45:36;;;;;;;8.18;4.47;;;23.40;50.60;;;;;;6211828;23;20016;-72
2021/04/21 12:48:22;;;;;;;10.68;5.53;;;23.50;50.90;;;;;;6213086;23;20015;-70
2021/04/21 12:50:49;;;;;;;5.38;4.53;;;23.60;53.20;;;;;;6213691;23;20001;-71
2021/04/21 12:53:18;;;;;;;9.88;5.75;;;23.60;54.60;;;;;;6213601;23;20001;-71
2021/04/21 12:55:45;;;;;;;9.45;5.72;;;23.70;55.60;;;;;;6213450;23;20035;-70
2021/04/21 12:58:12;;;;;;;11.18;5.47;;;23.70;57.60;;;;;;6211665;23;20408;-72
2021/04/21 13:00:38;;;;;;;9.88;6.18;;;23.70;60.10;;;;;;6213150;23;20005;-71
2021/04/21 13:03:14;;;;;;;7.65;4.90;;;23.70;59.80;;;;;;6211775;23;20521;-71
2021/04/21 13:05:45;;;;;;;9.43;6.22;;;23.70;59.50;;;;;;6213396;23;20077;-71
2021/04/21 13:08:29;;;;;;;12.95;4.60;;;23.70;59.00;;;;;;6213602;23;20009;-73
2021/04/21 13:10:56;;;;;;;8.07;5.15;;;23.70;58.00;;;;;;6213645;23;20004;-75
2021/04/21 13:13:25;;;;;;;9.13;5.47;;;23.60;57.20;;;;;;6213086;23;20008;-75
2021/04/21 13:15:52;;;;;;;8.70;5.35;;;23.60;55.90;;;;;;6213225;23;20437;-73
2021/04/21 13:18:18;;;;;;;6.35;5.28;;;23.60;55.40;;;;;;6213064;23;20004;-74
2021/04/21 13:20:47;;;;;;;7.70;5.43;;;23.60;54.90;;;;;;6211609;23;20071;-71
2021/04/21 13:23:15;;;;;;;8.85;5.15;;;23.60;54.50;;;;;;6213166;23;20075;-77
2021/04/21 13:25:57;;;;;;;7.28;5.25;;;23.60;54.00;;;;;;6213593;23;20063;-72
2021/04/21 13:28:30;;;;;;;8.60;6.07;;;23.60;54.00;;;;;;6213095;23;20008;-71
2021/04/21 13:31:12;;;;;;;7.47;5.43;;;23.60;53.00;;;;;;6213048;23;20403;-73
2021/04/21 13:33:43;;;;;;;8.85;5.75;;;23.60;52.70;;;;;;6211627;23;20036;-72
2021/04/21 13:36:10;;;;;;;9.35;5.43;;;23.70;52.40;;;;;;6213287;23;20000;-73
2021/04/21 13:38:38;;;;;;;7.22;5.70;;;23.60;52.00;;;;;;6211685;23;20583;-76
2021/04/21 13:41:05;;;;;;;9.13;5.32;;;23.60;51.80;;;;;;6213635;23;20001;-74
2021/04/21 13:43:30;;;;;;;5.95;5.18;;;23.70;51.60;;;;;;6213930;23;20009;-74
2021/04/21 13:45:56;;;;;;;5.82;5.13;;;23.70;51.40;;;;;;6214063;23;20015;-74
2021/04/21 13:48:22;;;;;;;6.70;4.80;;;23.60;51.20;;;;;;6214946;23;20000;-76
2021/04/21 13:50:48;;;;;;;6.93;5.38;;;23.60;51.20;;;;;;6213429;23;20445;-71
2021/04/21 13:53:15;;;;;;;6.57;5.32;;;23.60;51.10;;;;;;6214966;23;20078;-71
2021/04/21 13:55:41;;;;;;;8.75;5.50;;;23.50;50.90;;;;;;6215225;23;20028;-71
2021/04/21 13:58:07;;;;;;;9.45;5.60;;;23.50;50.80;;;;;;6215076;23;20424;-75
2021/04/21 14:00:32;;;;;;;6.22;5.03;;;23.60;50.80;;;;;;6215441;23;20005;-75
2021/04/21 14:02:58;;;;;;;7.57;4.97;;;23.50;50.70;;;;;;6213460;23;20005;-72
2021/04/21 14:05:24;;;;;;;6.55;4.97;;;23.60;50.60;;;;;;6214775;23;20011;-77
2021/04/21 14:07:49;;;;;;;6.63;5.50;;;23.50;50.50;;;;;;6213480;23;20001;-74
2021/04/21 14:10:17;;;;;;;6.85;5.38;;;23.50;50.40;;;;;;6215090;23;20500;-78
2021/04/21 14:12:44;;;;;;;6.40;4.93;;;23.50;50.50;;;;;;6213194;23;20001;-75
2021/04/21 14:15:11;;;;;;;6.78;5.30;;;23.50;50.40;;;;;;6213158;23;20015;-72
2021/04/21 14:17:37;;;;;;;7.57;5.13;;;23.50;50.30;;;;;;6213259;23;20001;-73
2021/04/21 14:20:09;;;;;;;6.15;5.38;;;23.50;50.30;;;;;;6215151;23;20383;-77
2021/04/21 14:22:35;;;;;;;5.32;4.82;;;23.50;50.10;;;;;;6215137;23;20328;-75
2021/04/21 14:25:02;;;;;;;7.07;4.88;;;23.50;50.00;;;;;;6214656;23;20031;-75
2021/04/21 14:27:29;;;;;;;7.18;5.75;;;23.50;50.10;;;;;;6215061;23;20004;-75
2021/04/21 14:29:54;;;;;;;5.55;4.90;;;23.50;50.60;;;;;;6214774;23;20005;-73
2021/04/21 14:32:20;;;;;;;5.90;5.13;;;23.50;50.00;;;;;;6214714;23;20115;-74
2021/04/21 14:34:46;;;;;;;6.47;5.35;;;23.50;49.90;;;;;;6214932;23;19997;-75
2021/04/21 14:37:12;;;;;;;7.40;5.25;;;23.40;50.00;;;;;;6214659;23;20383;-74
2021/04/21 14:39:38;;;;;;;6.55;5.50;;;23.40;50.00;;;;;;6214675;23;20083;-74
2021/04/21 14:42:04;;;;;;;6.10;5.30;;;23.40;50.00;;;;;;6214770;23;20055;-76
2021/04/21 14:44:30;;;;;;;7.13;5.20;;;23.30;50.00;;;;;;6214532;23;20326;-76
2021/04/21 14:46:55;;;;;;;6.05;5.32;;;23.30;50.10;;;;;;6214280;23;20012;-75
2021/04/21 14:49:21;;;;;;;6.13;5.03;;;23.30;50.10;;;;;;6214497;23;20012;-72
2021/04/21 14:51:47;;;;;;;6.68;5.82;;;23.20;50.10;;;;;;6214587;23;20001;-77
2021/04/21 14:54:13;;;;;;;7.15;5.50;;;23.20;50.00;;;;;;6213003;23;20440;-74
2021/04/21 14:56:40;;;;;;;7.72;6.38;;;23.20;50.10;;;;;;6214039;23;20001;-75
2021/04/21 14:59:05;;;;;;;7.72;5.78;;;23.20;50.70;;;;;;6214758;23;20008;-71
2021/04/21 15:01:33;;;;;;;6.47;5.28;;;23.20;50.20;;;;;;6214317;23;20007;-73
2021/04/21 15:03:59;;;;;;;6.25;5.30;;;23.20;50.20;;;;;;6214822;23;20012;-76
2021/04/21 15:06:26;;;;;;;6.50;5.18;;;23.20;50.30;;;;;;6214624;23;20440;-76
2021/04/21 15:08:51;;;;;;;6.95;5.93;;;23.10;50.20;;;;;;6214453;23;20502;-76
2021/04/21 15:11:19;;;;;;;7.72;5.72;;;23.10;50.20;;;;;;6214009;23;20004;-76
2021/04/21 15:13:44;;;;;;;6.45;5.22;;;23.10;50.20;;;;;;6213732;23;20027;-76
2021/04/21 15:16:11;;;;;;;7.25;5.40;;;23.10;50.30;;;;;;6214165;23;20000;-72
2021/04/21 15:18:37;;;;;;;6.53;5.13;;;23.10;50.20;;;;;;6214552;23;20019;-73
2021/04/21 15:21:03;;;;;;;6.60;5.05;;;23.10;50.20;;;;;;6214223;23;20000;-72
2021/04/21 15:23:29;;;;;;;6.90;5.05;;;23.10;50.20;;;;;;6214268;23;20083;-74
2021/04/21 15:25:55;;;;;;;7.30;6.32;;;23.00;50.20;;;;;;6214278;23;20001;-71
2021/04/21 15:28:25;;;;;;;7.22;5.00;;;23.10;50.30;;;;;;6214522;23;20075;-72
2021/04/21 15:30:59;;;;;;;6.85;5.10;;;23.00;50.30;;;;;;6214084;23;20024;-76
2021/04/21 15:33:25;;;;;;;7.00;5.07;;;23.00;50.30;;;;;;6214302;23;20406;-74
2021/04/21 15:35:55;;;;;;;6.03;5.13;;;23.00;50.30;;;;;;6213430;23;20208;-75
2021/04/21 15:38:25;;;;;;;7.18;4.75;;;23.00;50.40;;;;;;6212597;23;20083;-72
2021/04/21 15:40:57;;;;;;;7.25;5.10;;;23.00;50.40;;;;;;6212789;23;20027;-75
2021/04/21 15:43:22;;;;;;;9.32;5.05;;;23.00;50.50;;;;;;6212899;23;20004;-75
2021/04/21 15:45:48;;;;;;;7.05;4.90;;;22.90;50.50;;;;;;6212623;23;20008;-74
2021/04/21 15:48:14;;;;;;;4.72;4.20;;;23.00;50.60;;;;;;6212792;23;20421;-73
2021/04/21 15:50:40;;;;;;;7.10;4.70;;;22.90;50.70;;;;;;6212971;23;20364;-72
2021/04/21 15:53:06;;;;;;;6.18;4.60;;;23.00;50.70;;;;;;6213398;23;20015;-75
2021/04/21 15:55:32;;;;;;;5.40;3.88;;;22.90;50.70;;;;;;6212951;23;20437;-74
2021/04/21 15:57:58;;;;;;;8.20;4.30;;;22.90;50.70;;;;;;6212222;23;20009;-75
2021/04/21 16:00:26;;;;;;;5.47;4.30;;;22.90;50.80;;;;;;6214258;23;20368;-74
2021/04/21 16:03:00;;;;;;;6.50;4.47;;;22.90;50.90;;;;;;6213880;23;20455;-76
2021/04/21 16:05:29;;;;;;;6.97;4.28;;;22.90;50.90;;;;;;6213329;23;20336;-72
2021/04/21 16:07:55;;;;;;;8.25;4.68;;;22.80;51.00;;;;;;6213619;23;19997;-75
2021/04/21 16:10:25;;;;;;;6.25;4.45;;;22.80;51.00;;;;;;6213712;23;20011;-74
2021/04/21 16:12:52;;;;;;;5.45;4.43;;;22.80;51.10;;;;;;6214005;23;20001;-72
2021/04/21 16:15:18;;;;;;;6.43;4.55;;;22.80;51.30;;;;;;6213231;23;20000;-73
2021/04/21 16:17:45;;;;;;;10.50;5.35;;;22.60;51.40;;;;;;6213246;23;20004;-71
2021/04/21 16:20:12;;;;;;;7.85;5.43;;;22.60;51.70;;;;;;6213108;23;20009;-74
2021/04/21 16:22:38;;;;;;;5.78;5.03;;;22.50;51.90;;;;;;6213930;23;20000;-73
2021/04/21 16:25:13;;;;;;;6.05;5.07;;;22.50;52.00;;;;;;6213626;23;20009;-73
2021/04/21 16:27:40;;;;;;;5.90;5.07;;;22.50;52.10;;;;;;6213924;23;20448;-73
2021/04/21 16:30:07;;;;;;;8.60;5.13;;;22.40;52.10;;;;;;6212549;23;20004;-72
2021/04/21 16:32:33;;;;;;;7.03;5.30;;;22.40;52.20;;;;;;6213853;23;20005;-73
2021/04/21 16:34:59;;;;;;;5.32;4.45;;;22.40;52.30;;;;;;6213566;23;20004;-74
2021/04/21 16:37:24;;;;;;;7.25;5.28;;;22.40;52.30;;;;;;6210832;23;20008;-72
2021/04/21 16:39:50;;;;;;;7.38;5.22;;;22.30;52.40;;;;;;6213639;23;20012;-73
2021/04/21 16:42:16;;;;;;;8.85;5.30;;;22.30;52.50;;;;;;6213657;23;20524;-73
2021/04/21 16:44:43;;;;;;;7.30;4.95;;;22.20;52.60;;;;;;6213547;23;20079;-72
2021/04/21 16:47:09;;;;;;;8.60;4.80;;;22.20;52.70;;;;;;6213189;23;20008;-72
2021/04/21 16:49:35;;;;;;;7.90;5.25;;;22.10;52.80;;;;;;6212743;23;20009;-73
2021/04/21 16:52:01;;;;;;;20.73;6.75;;;22.10;52.80;;;;;;6212156;23;20062;-72
2021/04/21 16:54:26;;;;;;;7.50;4.57;;;22.10;52.90;;;;;;6213361;23;20439;-74
2021/04/21 16:56:52;;;;;;;7.55;5.45;;;22.00;53.00;;;;;;6213624;23;20001;-72
2021/04/21 16:59:18;;;;;;;8.13;5.63;;;21.90;53.10;;;;;;6213021;23;20309;-73
2021/04/21 17:01:45;;;;;;;9.90;5.20;;;21.90;53.10;;;;;;6213565;23;20004;-73
2021/04/21 17:04:12;;;;;;;8.05;4.72;;;21.80;53.30;;;;;;6214125;23;20005;-74
2021/04/21 17:06:42;;;;;;;11.10;4.93;;;21.80;53.40;;;;;;6211954;23;20001;-72
2021/04/21 17:09:09;;;;;;;13.32;5.00;;;21.70;53.60;;;;;;6213253;23;20036;-69
2021/04/21 17:11:36;;;;;;;7.38;4.30;;;21.70;53.80;;;;;;6213303;23;20603;-71
2021/04/21 17:14:07;;;;;;;9.50;5.07;;;21.60;53.80;;;;;;6211034;23;20356;-71
2021/04/21 17:16:34;;;;;;;7.85;5.07;;;21.60;54.00;;;;;;6213482;23;20334;-70
2021/04/21 17:19:09;;;;;;;10.20;4.72;;;21.60;53.90;;;;;;6213484;23;20036;-71
2021/04/21 17:21:36;;;;;;;10.63;4.57;;;21.50;54.00;;;;;;6213225;23;20004;-71
2021/04/21 17:24:10;;;;;;;13.00;4.72;;;21.50;54.10;;;;;;6215170;23;20071;-72
2021/04/21 17:26:39;;;;;;;6.57;3.88;;;21.40;54.20;;;;;;6213499;23;20080;-74
2021/04/21 17:29:29;;;;;;;8.40;4.25;;;21.40;54.60;;;;;;6215109;23;20433;-78
2021/04/21 17:31:58;;;;;;;9.38;4.30;;;21.40;54.80;;;;;;6215364;23;20007;-79
2021/04/21 17:34:23;;;;;;;7.05;4.35;;;21.30;54.90;;;;;;6215585;23;20001;-80
2021/04/21 17:36:49;;;;;;;11.85;4.50;;;21.30;54.90;;;;;;6215362;23;20007;-77
2021/04/21 17:39:17;;;;;;;16.08;4.72;;;21.30;55.00;;;;;;6215318;23;20104;-77
2021/04/21 17:41:46;;;;;;;6.57;4.10;;;21.20;54.90;;;;;;6215690;23;20032;-76
2021/04/21 17:44:15;;;;;;;10.07;4.43;;;21.20;55.00;;;;;;6215355;23;20024;-79
2021/04/21 17:46:41;;;;;;;8.90;3.85;;;21.10;55.20;;;;;;6213985;23;20012;-76
2021/04/21 17:49:18;;;;;;;7.25;3.80;;;21.10;55.20;;;;;;6215185;23;20009;-77
2021/04/21 17:51:44;;;;;;;12.48;3.65;;;21.00;55.20;;;;;;6207851;23;20095;-74
2021/04/21 17:54:28;;;;;;;7.63;3.95;;;21.00;55.20;;;;;;6204618;23;20020;-76
2021/04/21 17:56:58;;;;;;;13.32;3.88;;;21.00;55.30;;;;;;6211760;23;20004;-75
2021/04/21 17:59:24;;;;;;;7.22;3.90;;;20.90;55.40;;;;;;6214166;23;20013;-75
2021/04/21 18:01:50;;;;;;;10.70;4.15;;;20.90;55.50;;;;;;6211943;23;20074;-74
2021/04/21 18:04:16;;;;;;;11.75;3.80;;;20.80;55.50;;;;;;6214777;23;20005;-74
2021/04/21 18:06:46;;;;;;;10.40;3.20;;;20.80;55.60;;;;;;6212644;23;20043;-73
2021/04/21 18:09:11;;;;;;;11.55;3.90;;;20.70;55.60;;;;;;6214435;23;20095;-75
2021/04/21 18:11:37;;;;;;;7.32;4.15;;;20.70;55.70;;;;;;6214098;23;20035;-69
2021/04/21 18:14:03;;;;;;;11.23;3.65;;;20.70;55.80;;;;;;6214671;23;20047;-76
2021/04/21 18:16:29;;;;;;;8.38;3.40;;;20.60;55.70;;;;;;6214032;23;20032;-75
2021/04/21 18:18:55;;;;;;;8.88;3.72;;;20.60;55.80;;;;;;6212945;23;20012;-74
2021/04/21 18:21:21;;;;;;;6.47;3.13;;;20.50;55.70;;;;;;6212707;23;20001;-74
2021/04/21 18:23:47;;;;;;;6.65;3.33;;;20.50;55.80;;;;;;6211726;23;20054;-74
2021/04/21 18:26:12;;;;;;;7.43;3.58;;;20.40;55.70;;;;;;6212838;23;20023;-73
2021/04/21 18:28:39;;;;;;;6.90;3.53;;;20.40;55.60;;;;;;6212936;23;20054;-71
2021/04/21 18:31:04;;;;;;;12.40;3.33;;;20.40;55.70;;;;;;6212652;23;20075;-78
2021/04/21 18:33:30;;;;;;;7.35;3.42;;;20.40;55.70;;;;;;6212825;23;20039;-73
2021/04/21 18:35:58;;;;;;;9.27;3.50;;;20.30;55.70;;;;;;6214142;23;20001;-72
2021/04/21 18:38:26;;;;;;;9.02;3.88;;;20.30;55.70;;;;;;6213679;23;20016;-74